Sandestin, Florida
Current Conditions -  °F | °C
As of 12:53 PM on Friday 24 Oct 2014 (Local Time) from KDTS Reporting Station
Clear Clear  
Wind Chill: 76°   Ceiling: Unl
Heat Index: 76°   Visibility: 10mi
Dew Point: 45°   Wind: 0mph
Humidity: 33%   Direction: NA
Pressure: 30.02"   Gusts: NA
Location:  30.3738°N, 86.3602°W
Report Text: KDTS 241753Z AUTO 00000KT 10SM CLR 24/07 A3002 RMK AO2 SLP164 T02440072 10244 20150 58017 TSNO
Loading
Personal Weather Stations






























Interactive Weather Map
Tropical Storm Tracking
New forecast layout! Learn more

10-Day Weather Forecast

Advertisements
Track Severe Weather on mobile